North Spring Valley, Nevada Weather observations

Data are for 10 minute period ending at time listed.
 Day   Time   Solar   Ave.   Ave.  Ave.  Vector  Max.   Baro.   Total    
  of    of     Rad.   Air    Rel.  Wind   Wind   Wind  Press.  Precip.   
Year   Day            Temp.  Hum.  Speed  Dir.   Gust                    
2016   (PST)  Kw/m2    F      %     mph   deg.    mph    mb.     in.     
-------------------------------------------------------------------------
  43   19:20   0.00   24.8    84    1.4   291     3.9   833.6    0.00 
  43   19:30   0.00   22.9    86    2.3   273     4.2   833.7    0.00 
  43   19:40   0.00   23.2    85    0.9   267     1.9   833.7    0.00 
  43   19:50   0.00   23.0    85    1.0   235     2.8   833.7    0.00 
  43   20:00   0.00   21.7    86    1.6   239     2.9   833.7    0.00 
  43   20:10   0.00   20.3    86    0.5   237     1.6   833.7    0.00 
  43   20:20   0.00   19.9    89    1.3   186     3.0   833.7    0.00 
  43   20:30   0.00   19.5    88    3.1   233     5.6   833.7    0.00 
  43   20:40   0.00   19.3    90    3.9   226     5.1   833.6    0.00 
  43   20:50   0.00   19.5    88    1.0   165     2.6   833.6    0.00 
  43   21:00   0.00   18.9    89    2.8   196     3.8   833.5    0.00 
  43   21:10   0.00   19.4    91    2.6   213     3.7   833.5    0.00 
  43   21:20   0.00   20.5    91    1.2   226     2.8   833.5    0.00 
  43   21:30   0.00   20.3    90    0.9   138     2.7   833.5    0.00 
  43   21:40   0.00   19.6    92    1.8   264     4.5   833.6    0.00 
  43   21:50   0.00   17.8    91    2.1   277     4.0   833.7    0.00 
  43   22:00   0.00   15.4    91    0.8   354     2.9   833.8    0.00 
  43   22:10   0.00   13.7    91    1.7   317     2.4   833.8    0.00 
  43   22:20   0.00   16.2    96    1.0   233     3.1   833.8    0.00 
  43   22:30   0.00   17.7    94    2.7   249     6.1   833.9    0.00 
  43   22:40   0.00   15.7    92    4.2   257     6.6   833.8    0.00 
  43   22:50   0.00   15.7    93    4.9   253     6.9   833.7    0.00 
  43   23:00   0.00   15.3    92    5.0   258     6.3   833.7    0.00 
  43   23:10   0.00   16.0    92    5.4   264     7.6   833.6    0.00 
  43   23:20   0.00   16.3    91    5.3   260     6.4   833.6    0.00 
  43   23:30   0.00   15.7    91    3.7   260     6.0   833.6    0.00 
  43   23:40   0.00   15.7    91    4.8   256     7.7   833.5    0.00 
  43   23:50   0.00   14.7    88    3.4    32     6.3   833.6    0.00 
  44    0:00   0.00   11.5    89    2.2   335     3.5   833.7    0.00 
  44    0:10   0.00   13.1    92    1.2   336     5.5   833.6    0.00 
  44    0:20   0.00   15.3    94    2.1   261     5.0   833.4    0.00 
  44    0:30   0.00   17.2    93    2.2   182     4.8   833.4    0.00 
  44    0:40   0.00   14.9    90    2.4   143     4.1   833.5    0.00 
  44    0:50   0.00   12.5    89    1.1    72     3.6   833.5    0.00 
  44    1:00   0.00   13.0    92    3.0   230     6.9   833.5    0.00 
  44    1:10   0.00   12.8    90    1.7   352     3.4   833.5    0.00 
  44    1:20   0.00   12.8    91    1.6   327     3.6   833.5    0.00 
  44    1:30   0.00   13.4    91    2.5   311     4.7   833.5    0.00 
  44    1:40   0.00   14.2    92    2.1   270     4.9   833.5    0.00 
  44    1:50   0.00   15.6    92    1.9   251     5.1   833.4    0.00 
  44    2:00   0.00   14.8    91    1.6   240     3.8   833.4    0.00 
  44    2:10   0.00   14.5    91    0.9   258     2.6   833.5    0.00 
  44    2:20   0.00   15.6    93    1.1   203     3.1   833.4    0.00 
  44    2:30   0.00   13.6    88    2.1   106     4.2   833.4    0.00 
  44    2:40   0.00   11.0    89    3.1   129     5.6   833.3    0.00 
  44    2:50   0.00   11.0    90    1.9   118     4.6   833.2    0.00 
  44    3:00   0.00   11.2    90    3.6    26     6.6   833.3    0.00 
  44    3:10   0.00   10.7    89    1.4   285     4.8   833.3    0.00 
  44    3:20   0.00   11.1    90    1.4   218     4.1   833.2    0.00 
  44    3:30   0.00   11.0    90    1.9   173     5.2   833.1    0.00 
  44    3:40   0.00    9.7    88    2.2    63     5.2   833.1    0.00 
  44    3:50   0.00    8.4    88    0.7    35     1.9   833.1    0.00 
  44    4:00   0.00    9.5    90    2.9   211     5.0   833.0    0.00 
  44    4:10   0.00    8.0    87    1.6   348     4.0   833.2    0.00 
  44    4:20   0.00    8.2    89    2.0   329     5.3   833.4    0.00 
  44    4:30   0.00    8.3    88    0.6   182     2.0   833.3    0.00 
  44    4:40   0.00    8.9    89    1.3   140     3.7   833.3    0.00 
  44    4:50   0.00    8.7    89    3.3   224     5.9   833.4    0.00 
  44    5:00   0.00   10.0    90    1.1   308     3.6   833.4    0.00 
  44    5:10   0.00   10.0    89    2.6   128     3.7   833.4    0.00 
  44    5:20   0.00    8.7    88    2.6   123     5.3   833.5    0.00 
  44    5:30   0.00    8.2    88    0.7    36     3.5   833.5    0.00 
  44    5:40   0.00    7.9    88    1.9    30     4.3   833.6    0.00 
  44    5:50   0.00    8.3    89    2.3   186     5.1   833.5    0.00 
  44    6:00   0.00    8.6    89    2.3   127     3.7   833.5    0.00 
  44    6:10   0.00    8.8    89    2.6   169     4.9   833.5    0.00 
  44    6:20   0.00    9.5    90    2.4   195     4.1   833.5    0.00 
  44    6:30   0.00   10.2    89    2.5    38     4.8   833.6    0.00 
  44    6:40   0.01    8.9    88    1.5   342     3.9   833.8    0.00 
  44    6:50   0.02    9.6    89    1.7   205     2.9   833.9    0.00 
  44    7:00   0.02    9.2    88    1.8    80     4.0   834.0    0.00 
  44    7:10   0.03    9.2    88    2.8    34     5.0   834.1    0.00 
  44    7:20   0.04    9.5    89    1.0   179     2.9   834.0    0.00 
  44    7:30   0.07   10.0    89    1.5   101     3.3   834.0    0.00 
  44    7:40   0.08   10.5    89    1.6   125     2.9   834.2    0.00 
  44    7:50   0.11   11.3    90    1.5   309     4.2   834.4    0.00 
  44    8:00   0.17   12.8    90    2.5    56     4.6   834.3    0.00 
  44    8:10   0.28   11.9    88    3.0    72     4.2   834.3    0.00 
  44    8:20   0.40   13.9    92    1.1    34     3.2   834.4    0.00 
  44    8:30   0.30   14.6    90    1.1    21     3.2   834.3    0.00 
  44    8:40   0.31   15.0    90    1.7    77     3.3   834.2    0.00 
  44    8:50   0.38   16.9    90    1.4   130     3.6   834.1    0.00 
  44    9:00   0.53   18.0    90    4.2    46     9.8   834.3    0.00 
  44    9:10   0.56   18.6    88    4.4    18     8.7   834.5    0.00 
  44    9:20   0.47   20.8    88    3.0    34     5.9   834.5    0.00 
  44    9:30   0.38   22.1    85    2.3    47     4.5   834.5    0.00 
  44    9:40   0.52   23.2    82    2.1    35     4.9   834.4    0.00 
  44    9:50   0.60   26.1    76    1.1   109     3.0   834.3    0.00 
  44   10:00   0.52   26.6    74    1.6   136     4.7   834.2    0.00 
  44   10:10   0.51   28.5    72    1.9   290     3.4   834.2    0.00 
  44   10:20   0.50   29.7    71    2.2    18     4.1   834.3    0.00 
  44   10:30   0.55   27.4    73    4.2    81     6.4   834.3    0.00 
  44   10:40   0.49   28.0    71    2.8    82     4.6   834.3    0.00 
  44   10:50   0.54   31.2    67    0.5    62     3.4   834.3    0.00 
  44   11:00   0.69   34.5    58    1.0   106     2.5   834.3    0.00 
  44   11:10   0.72   36.8    56    0.4   196     1.5   834.2    0.00 
  44   11:20   0.55   34.2    61    1.8   126     3.8   834.2    0.00 
  44   11:30   0.77   33.9    64    2.0   118     3.1   834.1    0.00 
  44   11:40   0.73   34.9    62    1.6   115     3.7   834.1    0.00 
  44   11:50   0.67   33.3    65    3.2    85     6.2   834.1    0.00 
  44   12:00   0.52   34.1    64    2.6   186     4.1   833.9    0.00 
  44   12:10   0.67   33.3    68    4.0   121     6.4   833.7    0.00 
  44   12:20   0.72   34.1    67    3.3   162     4.7   833.5    0.00 
  44   12:30   0.70   35.9    62    3.3   151     4.6   833.3    0.00 
  44   12:40   0.71   33.4    69    5.0   129     6.6   833.2    0.00 
  44   12:50   0.70   34.7    66    4.4   171     6.7   833.0    0.00 
  44   13:00   0.69   36.5    62    3.7   176     5.6   832.9    0.00 
  44   13:10   0.68   35.9    64    3.0    89     5.0   832.8    0.00 
  44   13:20   0.66   37.6    59    1.7    65     3.4   832.8    0.00 
  44   13:30   0.65   39.6    56    1.1    65     3.5   833.0    0.00 
  44   13:40   0.63   38.6    57    2.4   113     3.9   832.8    0.00 
  44   13:50   0.61   37.5    61    2.4   104     3.7   832.7    0.00 
  44   14:00   0.58   37.9    62    2.4    91     4.5   832.6    0.00 
  44   14:10   0.56   38.6    59    3.1    90     6.1   832.7    0.00 
  44   14:20   0.54   38.7    59    2.3    32     6.3   832.7    0.00 
  44   14:30   0.51   42.0    53    1.0   304     3.3   832.5    0.00 
  44   14:40   0.48   41.4    54    1.1   101     2.5   832.3    0.00 
  44   14:50   0.45   38.2    62    3.4   109     4.5   832.2    0.00 
  44   15:00   0.42   38.4    62    1.9   120     2.9   832.1    0.00 
  44   15:10   0.39   41.5    56    0.6   126     2.0   831.9    0.00 
  44   15:20   0.36   45.2    48    0.6    38     2.9   831.9    0.00 
  44   15:30   0.33   41.0    56    1.8    54     3.1   832.0    0.00 
  44   15:40   0.30   42.1    55    0.7    86     2.2   832.0    0.00 
  44   15:50   0.26   42.5    54    0.6   172     1.9   832.0    0.00 
  44   16:00   0.23   42.6    53    1.7   193     3.4   832.0    0.00 
  44   16:10   0.14   39.3    60    1.1   106     3.1   832.1    0.00 
  44   16:20   0.02   36.8    66    0.6    15     1.9   832.1    0.00 
  44   16:30   0.02   32.6    72    3.8   287     6.2   832.1    0.00 
  44   16:40   0.02   29.0    81    3.8   293     4.5   832.0    0.00 
  44   16:50   0.01   30.2    81    2.5   294     3.7   831.7    0.00 
  44   17:00   0.01   30.1    78    2.6   278     3.2   831.6    0.00 
  44   17:10   0.01   30.2    78    3.1   304     4.3   831.7    0.00 
  44   17:20   0.01   30.1    77    3.7   281     6.0   831.8    0.00 
  44   17:30   0.00   26.6    82    4.6   273     5.9   831.9    0.00 
  44   17:40   0.00   25.7    84    5.2   277     6.5   832.1    0.00 
  44   17:50   0.00   25.7    84    5.2   264     6.9   832.2    0.00 
  44   18:00   0.00   26.6    83    5.4   257     6.7   832.5    0.00 
  44   18:10   0.00   26.0    83    6.1   260     8.5   832.5    0.00 
  44   18:20   0.00   28.4    80    2.6   248     5.8   832.7    0.00 
  44   18:30   0.00   27.3    80    4.3   246     8.6   832.9    0.00 
  44   18:40   0.00   27.5    80    3.9   245     6.4   833.0    0.00 
  44   18:50   0.00   28.6    79    0.9   112     3.1   833.2    0.00 
  44   19:00   0.00   23.2    77    3.9     9     5.6   833.4    0.00 
  44   19:10   0.00   21.6    89    3.5   289     5.6   833.3    0.00 

Return to North Spring Valley graphs page.


Western Regional Climate Center,wrcc@dri.edu